Darlag, China
Current Conditions -  °F | °C
As of 1:00 PM on Thursday 23 Oct 2014 (Local Time) from ZLLL Reporting Station
Clear Clear  
Wind Chill: 59°   Ceiling: Unl
Heat Index: 59°   Visibility: 6mi
Dew Point: 34°   Wind: 9mph
Humidity: 39%   Direction: 170°S
Pressure: 30.18"   Gusts: NA
Location:  33.75°N, 99.65°E
Report Text: ZLLL 230500Z 17004MPS 120V210 CAVOK 15/01 Q1022 NOSIG
Loading
Personal Weather Stations






























Interactive Weather Map
Tropical Storm Tracking
New forecast layout! Learn more

10-Day Weather Forecast

Advertisements
Track Severe Weather on mobile